Bishop, Texas
Current Conditions -  °F | °C
As of 10:56 PM on Monday 22 Dec 2014 (Local Time) from KNQI Reporting Station
Haze Haze  
Wind Chill: 14°   Ceiling: Unl
Heat Index: 14°   Visibility: 3mi
Dew Point: 14°   Wind: 7mph
Humidity: 100%   Direction: 140°SE
Pressure: 29.63"   Gusts: NA
Location:  27.59°N, 97.8°W
Report Text: KNQI 230456Z 14006KT 3SM BR SCT230 14/14 A2963 RMK AO2 SLP030 T01440144 $
Loading
Personal Weather Stations






























Interactive Weather Map New forecast layout! Learn more

10-Day Weather Forecast

Advertisements
Track Severe Weather on mobile